Time;durP1;ratioP1;P1;durP2;ratioP2;P2;SDS_P1;SDS_P2;PMS_P1;PMS_P2;Temp;Humidity;BMP_temperature;BMP_pressure;BME280_temperature;BME280_humidity;BME280_pressure;Samples;Min_cycle;Max_cycle;Signal;HPM_P1;HPM_P2
2023/10/19 00:02:46;;;;;;;19.42;8.50;;;10.70;78.00;;;;;;9174549;19;20022;-70
2023/10/19 00:05:52;;;;;;;21.38;9.00;;;10.70;78.10;;;;;;9170787;19;20130;-70
2023/10/19 00:09:01;;;;;;;14.82;8.05;;;10.70;78.20;;;;;;9165673;19;20023;-72
2023/10/19 00:12:09;;;;;;;20.38;8.48;;;10.70;78.30;;;;;;9165698;19;20075;-71
2023/10/19 00:15:22;;;;;;;19.90;8.48;;;10.70;78.40;;;;;;9166211;19;20014;-71
2023/10/19 00:18:34;;;;;;;17.23;8.23;;;10.70;78.40;;;;;;9175890;19;20010;-71
2023/10/19 00:21:50;;;;;;;22.30;9.38;;;10.70;78.50;;;;;;9173963;19;20022;-70
2023/10/19 00:24:55;;;;;;;18.75;9.13;;;10.70;78.50;;;;;;9174871;19;20029;-72
2023/10/19 00:28:06;;;;;;;18.52;8.52;;;10.70;78.60;;;;;;9175257;19;20392;-71
2023/10/19 00:31:13;;;;;;;17.20;8.48;;;10.70;78.70;;;;;;9175234;19;20014;-71
2023/10/19 00:34:21;;;;;;;14.00;8.40;;;10.70;78.70;;;;;;9175545;19;20761;-72
2023/10/19 00:37:29;;;;;;;22.20;8.65;;;10.70;78.80;;;;;;9172836;19;20026;-71
2023/10/19 00:40:38;;;;;;;14.38;8.82;;;10.70;78.90;;;;;;9170902;19;20314;-72
2023/10/19 00:43:49;;;;;;;14.25;8.23;;;10.60;78.90;;;;;;9171090;19;20107;-72
2023/10/19 00:47:02;;;;;;;16.42;8.65;;;10.70;79.10;;;;;;9172677;19;20521;-72
2023/10/19 00:50:15;;;;;;;16.25;9.35;;;10.60;79.00;;;;;;9172275;19;20440;-72
2023/10/19 00:53:23;;;;;;;12.90;8.65;;;10.60;79.10;;;;;;9174901;19;20010;-71
2023/10/19 00:56:32;;;;;;;13.70;8.70;;;10.60;79.20;;;;;;9172071;19;20277;-71
2023/10/19 00:59:47;;;;;;;15.85;9.07;;;10.60;79.30;;;;;;9173238;19;20019;-71
2023/10/19 01:02:59;;;;;;;16.00;8.13;;;10.60;79.30;;;;;;9172874;19;20485;-70
2023/10/19 01:06:09;;;;;;;15.95;9.27;;;10.60;79.30;;;;;;9173667;19;20435;-70
2023/10/19 01:09:20;;;;;;;17.33;8.48;;;10.60;79.50;;;;;;9169286;19;20018;-69
2023/10/19 01:12:38;;;;;;;13.48;8.32;;;10.60;79.50;;;;;;9174631;19;20018;-70
2023/10/19 01:15:49;;;;;;;16.40;8.60;;;10.60;79.60;;;;;;9172788;19;20010;-70
2023/10/19 01:18:58;;;;;;;17.27;9.02;;;10.60;79.70;;;;;;9172182;19;21514;-72
2023/10/19 01:22:04;;;;;;;17.67;8.98;;;10.60;79.70;;;;;;9168600;19;20011;-70
2023/10/19 01:25:16;;;;;;;16.85;8.50;;;10.60;79.80;;;;;;9170968;19;20106;-72
2023/10/19 01:28:25;;;;;;;14.68;8.63;;;10.70;79.90;;;;;;9170260;19;20006;-72
2023/10/19 01:31:38;;;;;;;14.85;8.40;;;10.70;79.90;;;;;;9171207;19;20014;-70
2023/10/19 01:34:44;;;;;;;19.40;9.10;;;10.60;80.00;;;;;;9171292;19;20082;-69
2023/10/19 01:37:49;;;;;;;12.13;7.72;;;10.70;80.00;;;;;;9172388;19;20010;-69
2023/10/19 01:40:59;;;;;;;18.08;9.10;;;10.70;80.10;;;;;;9170885;19;20018;-72
2023/10/19 01:44:13;;;;;;;12.88;8.23;;;10.70;80.20;;;;;;9171132;19;20495;-70
2023/10/19 01:47:20;;;;;;;12.27;7.95;;;10.70;80.20;;;;;;9166476;19;20042;-71
2023/10/19 01:50:25;;;;;;;15.20;8.23;;;10.70;80.20;;;;;;9170557;19;20365;-71
2023/10/19 01:53:31;;;;;;;11.32;7.30;;;10.80;80.40;;;;;;9172878;19;20026;-71
2023/10/19 01:56:43;;;;;;;13.57;6.75;;;10.70;80.30;;;;;;9169343;19;20010;-72
2023/10/19 01:59:49;;;;;;;13.80;6.82;;;10.70;80.40;;;;;;9169621;19;20014;-70
2023/10/19 02:02:57;;;;;;;14.48;6.85;;;10.70;80.40;;;;;;9172658;19;20455;-70
2023/10/19 02:06:09;;;;;;;13.98;7.55;;;10.80;80.60;;;;;;9169348;19;20467;-70
2023/10/19 02:09:21;;;;;;;11.40;7.10;;;10.80;80.70;;;;;;9170198;19;20045;-70
2023/10/19 02:12:30;;;;;;;13.38;6.90;;;10.80;80.60;;;;;;9169548;19;20908;-70
2023/10/19 02:15:37;;;;;;;12.10;6.95;;;10.80;80.80;;;;;;9169578;19;20506;-70
2023/10/19 02:18:42;;;;;;;12.32;7.57;;;10.80;80.80;;;;;;9169059;19;20020;-72
2023/10/19 02:21:52;;;;;;;14.50;7.45;;;10.80;80.80;;;;;;9169778;19;20022;-72
2023/10/19 02:24:57;;;;;;;10.05;6.65;;;10.80;80.80;;;;;;9168969;19;20109;-69
2023/10/19 02:28:09;;;;;;;15.00;8.00;;;10.90;81.00;;;;;;9170575;19;20018;-69
2023/10/19 02:31:18;;;;;;;12.27;7.72;;;10.90;81.10;;;;;;9168806;19;20026;-69
2023/10/19 02:34:26;;;;;;;11.55;7.35;;;10.90;81.10;;;;;;9167294;19;20018;-69
2023/10/19 02:37:32;;;;;;;13.48;7.93;;;10.90;81.10;;;;;;9166941;19;20010;-71
2023/10/19 02:40:39;;;;;;;13.32;8.35;;;10.90;81.20;;;;;;9168184;19;20010;-71
2023/10/19 02:43:51;;;;;;;12.85;7.47;;;10.90;81.30;;;;;;9163427;19;20018;-68
2023/10/19 02:47:05;;;;;;;12.38;8.55;;;11.00;81.40;;;;;;9168272;19;20355;-69
2023/10/19 02:50:15;;;;;;;12.07;8.07;;;11.00;81.40;;;;;;9168342;19;20018;-69
2023/10/19 02:53:24;;;;;;;14.88;8.73;;;11.00;81.40;;;;;;9168709;19;20014;-69
2023/10/19 02:56:29;;;;;;;13.75;8.48;;;11.00;81.40;;;;;;9165894;19;20073;-70
2023/10/19 02:59:40;;;;;;;11.75;7.72;;;11.10;81.50;;;;;;9168557;19;20011;-70
2023/10/19 03:02:45;;;;;;;13.70;8.10;;;11.10;81.50;;;;;;9165274;19;20015;-69
2023/10/19 03:05:52;;;;;;;11.82;8.32;;;11.10;81.60;;;;;;9169098;19;20042;-68
2023/10/19 03:08:58;;;;;;;15.15;8.77;;;11.10;81.60;;;;;;9185920;19;20014;-72
2023/10/19 03:12:10;;;;;;;12.95;7.68;;;11.10;82.30;;;;;;9185780;19;20011;-69
2023/10/19 03:15:20;;;;;;;13.90;8.60;;;11.10;81.70;;;;;;9180377;19;20030;-70
2023/10/19 03:18:25;;;;;;;16.77;8.43;;;11.20;81.80;;;;;;9174585;19;20014;-71
2023/10/19 03:21:33;;;;;;;13.65;9.00;;;11.20;81.80;;;;;;9169227;19;20021;-69
2023/10/19 03:24:42;;;;;;;13.65;8.93;;;11.20;81.80;;;;;;9169733;19;20503;-71
2023/10/19 03:27:46;;;;;;;11.73;7.88;;;11.20;81.80;;;;;;9165786;19;20011;-69
2023/10/19 03:30:57;;;;;;;14.85;9.73;;;11.20;81.90;;;;;;9167451;19;20014;-69
2023/10/19 03:34:06;;;;;;;14.13;9.02;;;11.30;82.10;;;;;;9163986;19;20019;-69
2023/10/19 03:37:14;;;;;;;13.15;9.30;;;11.30;82.50;;;;;;9164073;19;20014;-71
2023/10/19 03:40:27;;;;;;;14.05;8.80;;;11.30;82.10;;;;;;9163519;19;20562;-72
2023/10/19 03:43:35;;;;;;;15.27;9.02;;;11.30;82.10;;;;;;9160516;19;20619;-71
2023/10/19 03:46:52;;;;;;;13.18;8.45;;;11.40;82.20;;;;;;9163833;19;20384;-72
2023/10/19 03:50:06;;;;;;;16.10;9.10;;;11.40;82.20;;;;;;9169997;19;20018;-69
2023/10/19 03:53:12;;;;;;;17.98;9.75;;;11.40;82.30;;;;;;9175513;19;20034;-69
2023/10/19 03:56:20;;;;;;;14.02;8.60;;;11.40;82.30;;;;;;9177008;19;20687;-70
2023/10/19 03:59:29;;;;;;;13.00;8.57;;;11.40;82.30;;;;;;9177165;19;20024;-70
2023/10/19 04:02:41;;;;;;;17.45;8.65;;;11.50;82.40;;;;;;9171361;19;20071;-72
2023/10/19 04:05:47;;;;;;;13.15;8.70;;;11.50;82.50;;;;;;9174020;19;20030;-71
2023/10/19 04:08:55;;;;;;;13.80;9.48;;;11.60;82.50;;;;;;9171972;19;20014;-70
2023/10/19 04:12:02;;;;;;;15.25;8.80;;;11.50;82.50;;;;;;9174873;19;20021;-69
2023/10/19 04:15:15;;;;;;;12.68;9.05;;;11.60;82.60;;;;;;9174687;19;20480;-70
2023/10/19 04:18:25;;;;;;;12.38;8.77;;;11.60;82.70;;;;;;9176845;19;20761;-72
2023/10/19 04:21:38;;;;;;;13.55;9.25;;;11.60;82.80;;;;;;9174872;19;20014;-70
2023/10/19 04:24:43;;;;;;;14.70;9.27;;;11.60;82.70;;;;;;9176267;19;20018;-70
2023/10/19 04:27:51;;;;;;;14.65;9.18;;;11.70;82.90;;;;;;9174549;19;20018;-71
2023/10/19 04:30:57;;;;;;;13.20;9.35;;;11.70;82.90;;;;;;9174219;19;20019;-72
2023/10/19 04:34:09;;;;;;;16.48;10.02;;;11.80;83.50;;;;;;9172201;19;20022;-69
2023/10/19 04:37:18;;;;;;;13.32;9.18;;;11.80;83.00;;;;;;9175182;19;20047;-72
2023/10/19 04:40:26;;;;;;;14.65;9.75;;;11.80;83.00;;;;;;9175047;19;20376;-68
2023/10/19 04:43:31;;;;;;;15.80;9.82;;;11.80;83.00;;;;;;9168763;19;20429;-68
2023/10/19 04:46:39;;;;;;;13.82;9.63;;;11.90;83.10;;;;;;9175898;19;20026;-69
2023/10/19 04:49:47;;;;;;;14.52;9.43;;;11.90;83.10;;;;;;9175317;19;20014;-68
2023/10/19 04:52:55;;;;;;;14.63;10.15;;;12.00;83.20;;;;;;9173451;19;20022;-70
2023/10/19 04:56:01;;;;;;;15.05;10.38;;;12.00;83.30;;;;;;9172765;19;20551;-72
2023/10/19 04:59:08;;;;;;;15.73;9.75;;;12.00;83.20;;;;;;9172622;19;20034;-69
2023/10/19 05:02:14;;;;;;;16.63;11.18;;;12.10;83.30;;;;;;9169574;19;20670;-71
2023/10/19 05:05:24;;;;;;;13.55;9.32;;;12.10;83.40;;;;;;9172694;19;20498;-69
2023/10/19 05:08:29;;;;;;;17.27;10.00;;;12.20;83.50;;;;;;9170465;19;20014;-70
2023/10/19 05:11:37;;;;;;;15.68;10.38;;;12.10;83.40;;;;;;9171545;19;20018;-71
2023/10/19 05:14:43;;;;;;;16.27;10.30;;;12.20;83.50;;;;;;9175506;19;20050;-70
2023/10/19 05:17:50;;;;;;;17.33;10.27;;;12.30;83.60;;;;;;9172233;19;20018;-69
2023/10/19 05:20:58;;;;;;;15.57;10.52;;;12.30;83.70;;;;;;9167035;19;20052;-69
2023/10/19 05:24:07;;;;;;;15.23;9.25;;;12.30;83.70;;;;;;9169879;19;20014;-71
2023/10/19 05:27:12;;;;;;;17.05;9.65;;;12.40;83.80;;;;;;9171540;19;20094;-70
2023/10/19 05:30:23;;;;;;;16.08;9.75;;;12.40;83.80;;;;;;9168357;19;20681;-70
2023/10/19 05:33:30;;;;;;;15.35;10.10;;;12.50;84.30;;;;;;9172166;19;20014;-71
2023/10/19 05:36:43;;;;;;;13.27;9.52;;;12.50;84.10;;;;;;9170800;19;20023;-69
2023/10/19 05:39:51;;;;;;;15.38;10.40;;;12.50;84.40;;;;;;9171357;19;20321;-68
2023/10/19 05:43:00;;;;;;;16.27;9.73;;;12.50;84.00;;;;;;9167716;19;20011;-68
2023/10/19 05:46:06;;;;;;;16.98;10.07;;;12.60;84.00;;;;;;9171516;19;20052;-68
2023/10/19 05:49:16;;;;;;;16.75;10.63;;;12.60;84.00;;;;;;9172338;19;20031;-71
2023/10/19 05:52:25;;;;;;;16.23;9.07;;;12.60;84.00;;;;;;9172154;19;20029;-68
2023/10/19 05:55:33;;;;;;;19.20;10.30;;;12.70;84.10;;;;;;9170554;19;20033;-69
2023/10/19 05:58:44;;;;;;;17.13;9.90;;;12.70;84.10;;;;;;9174127;19;20849;-67
2023/10/19 06:01:52;;;;;;;23.48;11.20;;;12.70;84.10;;;;;;9169164;19;20480;-68
2023/10/19 06:04:57;;;;;;;17.77;10.85;;;12.70;84.20;;;;;;9167358;19;20020;-70
2023/10/19 06:08:08;;;;;;;15.73;10.73;;;12.80;84.30;;;;;;9167001;19;20015;-68
2023/10/19 06:11:13;;;;;;;14.70;9.48;;;12.80;84.40;;;;;;9165656;19;20101;-68
2023/10/19 06:14:21;;;;;;;16.30;10.30;;;12.80;84.20;;;;;;9163268;19;20372;-68
2023/10/19 06:17:26;;;;;;;18.10;10.38;;;12.80;84.30;;;;;;9165770;19;20015;-70
2023/10/19 06:20:34;;;;;;;17.95;10.02;;;12.90;84.30;;;;;;9166720;19;20014;-69
2023/10/19 06:23:42;;;;;;;20.73;10.35;;;12.90;84.40;;;;;;9180571;19;20259;-72
2023/10/19 06:26:50;;;;;;;17.58;9.73;;;13.00;84.50;;;;;;9183235;19;20017;-72
2023/10/19 06:29:55;;;;;;;17.70;9.68;;;13.00;84.40;;;;;;9178886;19;20043;-69
2023/10/19 06:33:05;;;;;;;18.13;10.00;;;13.10;84.60;;;;;;9169347;19;20018;-69
2023/10/19 06:36:13;;;;;;;17.55;10.80;;;13.10;84.50;;;;;;9167394;19;20015;-71
2023/10/19 06:39:23;;;;;;;20.00;10.82;;;13.10;84.60;;;;;;9167815;19;20018;-69
2023/10/19 06:42:29;;;;;;;17.83;9.60;;;13.10;84.70;;;;;;9165098;19;20011;-68
2023/10/19 06:45:37;;;;;;;18.48;9.35;;;13.10;84.60;;;;;;9166847;19;20026;-69
2023/10/19 06:48:42;;;;;;;17.95;9.80;;;13.20;84.70;;;;;;9168981;19;20798;-69
2023/10/19 06:51:50;;;;;;;17.02;9.73;;;13.30;84.80;;;;;;9169234;19;21425;-71
2023/10/19 06:54:58;;;;;;;15.90;8.73;;;13.30;84.80;;;;;;9168960;19;20526;-71
2023/10/19 06:58:09;;;;;;;18.25;9.35;;;13.30;84.90;;;;;;9168098;19;20086;-70
2023/10/19 07:01:16;;;;;;;15.45;8.85;;;13.30;84.90;;;;;;9167693;19;20412;-68
2023/10/19 07:04:24;;;;;;;17.90;9.60;;;13.40;84.90;;;;;;9164481;19;20018;-68
2023/10/19 07:07:30;;;;;;;14.82;8.23;;;13.40;85.50;;;;;;9166784;19;20018;-72
2023/10/19 07:10:59;;;;;;;20.15;8.18;;;13.40;85.00;;;;;;9169359;19;20821;-68
2023/10/19 07:14:07;;;;;;;16.60;9.07;;;13.50;85.00;;;;;;9167189;19;20011;-71
2023/10/19 07:17:15;;;;;;;15.15;7.55;;;13.50;85.10;;;;;;9168468;19;20026;-72
2023/10/19 07:20:25;;;;;;;19.60;9.13;;;13.50;85.10;;;;;;9166971;19;20014;-68
2023/10/19 07:23:37;;;;;;;18.23;8.88;;;13.60;85.20;;;;;;9166072;19;20015;-70
2023/10/19 07:26:53;;;;;;;15.10;9.15;;;13.60;85.20;;;;;;9166256;19;20279;-71
2023/10/19 07:30:01;;;;;;;15.60;8.68;;;13.60;85.20;;;;;;9166972;19;20010;-69
2023/10/19 07:33:07;;;;;;;15.93;9.48;;;13.60;85.20;;;;;;9168053;19;20011;-70
2023/10/19 07:36:18;;;;;;;18.30;8.90;;;13.70;85.30;;;;;;9162297;19;20078;-68
2023/10/19 07:39:24;;;;;;;16.25;8.85;;;13.70;85.30;;;;;;9167106;19;20029;-70
2023/10/19 07:42:36;;;;;;;14.43;8.43;;;13.70;85.30;;;;;;9164524;19;20022;-69
2023/10/19 07:45:42;;;;;;;13.82;8.10;;;13.70;85.40;;;;;;9166195;19;20014;-70
2023/10/19 07:48:52;;;;;;;21.17;8.20;;;13.80;85.40;;;;;;9168147;19;20396;-71
2023/10/19 07:51:59;;;;;;;13.55;8.30;;;13.80;85.40;;;;;;9172058;19;20015;-70
2023/10/19 07:55:08;;;;;;;18.13;8.57;;;13.80;85.40;;;;;;9169166;19;20353;-69
2023/10/19 07:58:16;;;;;;;11.73;7.30;;;13.90;85.60;;;;;;9171555;19;20011;-72
2023/10/19 08:01:23;;;;;;;12.93;8.32;;;13.90;85.60;;;;;;9170062;19;20014;-69
2023/10/19 08:04:29;;;;;;;15.68;7.68;;;14.00;85.70;;;;;;9167850;19;20030;-70
2023/10/19 08:07:39;;;;;;;12.27;7.25;;;14.00;85.70;;;;;;9165209;19;20014;-71
2023/10/19 08:10:44;;;;;;;23.45;8.00;;;14.00;85.70;;;;;;9163070;19;20060;-71
2023/10/19 08:13:55;;;;;;;17.73;6.80;;;14.10;85.80;;;;;;9165399;19;20364;-69
2023/10/19 08:17:00;;;;;;;12.77;6.53;;;14.10;85.80;;;;;;9162664;19;20020;-70
2023/10/19 08:20:15;;;;;;;17.58;6.38;;;14.10;85.80;;;;;;9161011;19;20013;-71
2023/10/19 08:23:23;;;;;;;15.45;5.93;;;14.20;85.90;;;;;;9165662;19;20758;-73
2023/10/19 08:26:30;;;;;;;16.92;6.15;;;14.20;85.90;;;;;;9165532;19;20011;-68
2023/10/19 08:29:39;;;;;;;13.38;6.50;;;14.20;86.00;;;;;;9164525;19;20051;-68
2023/10/19 08:32:49;;;;;;;12.80;5.00;;;14.30;86.10;;;;;;9166988;19;20024;-68
2023/10/19 08:35:56;;;;;;;12.20;5.43;;;14.30;86.10;;;;;;9164262;19;20386;-71
2023/10/19 08:39:05;;;;;;;18.50;5.80;;;14.40;86.10;;;;;;9174542;19;20015;-71
2023/10/19 08:42:11;;;;;;;13.25;6.03;;;14.40;86.80;;;;;;9170130;19;20379;-72
2023/10/19 08:45:21;;;;;;;11.82;5.45;;;14.50;86.20;;;;;;9170579;19;20017;-68
2023/10/19 08:48:29;;;;;;;15.05;6.05;;;14.50;86.40;;;;;;9174086;19;20018;-68
2023/10/19 08:51:36;;;;;;;13.88;4.93;;;14.60;86.40;;;;;;9171612;19;20034;-68
2023/10/19 08:54:42;;;;;;;11.20;5.22;;;14.70;86.40;;;;;;9173267;19;20484;-69
2023/10/19 08:57:51;;;;;;;12.40;5.38;;;14.70;86.50;;;;;;9172942;19;20014;-72
2023/10/19 09:01:23;;;;;;;10.32;4.57;;;14.80;86.50;;;;;;9170186;19;20026;-69
2023/10/19 09:04:31;;;;;;;;;;;14.90;86.60;;;;;;9171061;19;20014;-69
2023/10/19 09:07:41;;;;;;;8.57;4.45;;;14.90;86.30;;;;;;9169752;19;19923;-70
2023/10/19 09:10:53;;;;;;;21.63;5.32;;;14.90;86.30;;;;;;9169509;19;20021;-68
2023/10/19 09:14:00;;;;;;;21.13;4.50;;;15.00;86.40;;;;;;9171930;19;20026;-68
2023/10/19 09:17:10;;;;;;;13.88;4.95;;;15.00;86.40;;;;;;9166855;19;20022;-70
2023/10/19 09:20:27;;;;;;;23.05;5.78;;;15.10;86.60;;;;;;9170857;19;20112;-68
2023/10/19 09:23:34;;;;;;;9.45;4.47;;;15.10;86.60;;;;;;9171020;19;20014;-68
2023/10/19 09:26:40;;;;;;;12.88;5.05;;;15.20;86.60;;;;;;9171599;19;20048;-69
2023/10/19 09:29:47;;;;;;;11.25;4.65;;;15.20;86.60;;;;;;9171717;19;20353;-68
2023/10/19 09:32:56;;;;;;;17.42;4.97;;;15.30;86.90;;;;;;9172240;19;20018;-69
2023/10/19 09:36:12;;;;;;;11.30;4.43;;;15.30;87.00;;;;;;9171664;19;20030;-68
2023/10/19 09:39:18;;;;;;;10.15;4.28;;;15.30;86.70;;;;;;9183699;19;20456;-69
2023/10/19 09:42:29;;;;;;;16.48;4.93;;;15.40;86.80;;;;;;9178012;19;20053;-71
2023/10/19 09:45:39;;;;;;;11.10;4.63;;;15.50;86.90;;;;;;9174912;19;20023;-69
2023/10/19 09:48:52;;;;;;;10.57;3.80;;;15.50;86.90;;;;;;9171686;19;20014;-71
2023/10/19 09:51:57;;;;;;;15.13;5.65;;;15.60;86.90;;;;;;9172972;19;20010;-71
2023/10/19 09:55:25;;;;;;;16.00;4.78;;;15.60;86.90;;;;;;9174220;19;20018;-70
2023/10/19 09:58:39;;;;;;;15.57;5.47;;;15.70;87.00;;;;;;9173578;19;20048;-70
2023/10/19 10:02:10;;;;;;;11.85;4.50;;;15.70;87.00;;;;;;9169326;19;20015;-70
2023/10/19 10:05:47;;;;;;;13.23;4.20;;;15.80;87.10;;;;;;9167311;19;20081;-70
2023/10/19 10:08:58;;;;;;;11.75;4.18;;;15.80;87.10;;;;;;9169235;19;20015;-72
2023/10/19 10:12:19;;;;;;;16.20;5.40;;;15.90;87.00;;;;;;9170203;19;20029;-70
2023/10/19 10:15:43;;;;;;;14.93;5.10;;;16.00;87.20;;;;;;9169294;19;20010;-69
2023/10/19 10:18:50;;;;;;;12.98;4.43;;;16.10;87.20;;;;;;9170478;19;20563;-68
2023/10/19 10:22:14;;;;;;;11.10;4.75;;;16.10;87.10;;;;;;9167977;19;20014;-69
2023/10/19 10:25:32;;;;;;;12.77;4.45;;;16.20;87.30;;;;;;9165543;19;20019;-70
2023/10/19 10:28:39;;;;;;;11.95;4.40;;;16.20;87.20;;;;;;9167067;19;20018;-74
2023/10/19 10:31:46;;;;;;;13.13;4.60;;;16.30;87.10;;;;;;9167652;19;20018;-71
2023/10/19 10:34:55;;;;;;;10.95;3.95;;;16.40;87.30;;;;;;9169488;19;20074;-69
2023/10/19 10:38:01;;;;;;;12.43;4.65;;;16.40;87.10;;;;;;9166219;19;20058;-68
2023/10/19 10:41:12;;;;;;;13.93;3.95;;;16.50;87.10;;;;;;9164645;19;20018;-71
2023/10/19 10:44:19;;;;;;;8.65;3.67;;;16.50;87.10;;;;;;9166602;19;21232;-68
2023/10/19 10:47:29;;;;;;;11.35;3.55;;;16.50;87.00;;;;;;9166113;19;20006;-72
2023/10/19 10:50:35;;;;;;;7.13;3.55;;;16.60;87.10;;;;;;9164275;19;20110;-70
2023/10/19 10:53:44;;;;;;;16.58;4.38;;;16.60;87.00;;;;;;9164534;19;20019;-71
2023/10/19 10:56:52;;;;;;;10.60;3.70;;;16.70;87.70;;;;;;9165140;19;20010;-72
2023/10/19 11:00:08;;;;;;;13.23;3.97;;;16.70;87.10;;;;;;9164669;19;20321;-72
2023/10/19 11:03:15;;;;;;;11.00;3.92;;;16.80;87.20;;;;;;9166547;19;20086;-70
2023/10/19 11:06:23;;;;;;;12.15;4.07;;;16.80;87.10;;;;;;9167410;19;20011;-69
2023/10/19 11:09:29;;;;;;;9.63;3.97;;;16.90;87.20;;;;;;9165239;19;20029;-69
2023/10/19 11:12:39;;;;;;;13.32;5.13;;;16.90;87.20;;;;;;9165544;19;20025;-70
2023/10/19 11:15:52;;;;;;;13.82;4.72;;;17.00;87.30;;;;;;9164351;19;20014;-70
2023/10/19 11:19:04;;;;;;;8.05;4.13;;;17.00;87.30;;;;;;9164372;19;20024;-73
2023/10/19 11:22:12;;;;;;;13.77;4.80;;;17.10;87.20;;;;;;9164049;19;20656;-69
2023/10/19 11:25:21;;;;;;;17.00;4.60;;;17.20;87.40;;;;;;9165875;19;20018;-70
2023/10/19 11:28:31;;;;;;;16.60;6.22;;;17.20;87.30;;;;;;9164936;19;20097;-71
2023/10/19 11:31:41;;;;;;;19.00;4.57;;;17.30;87.40;;;;;;9166393;19;20366;-71
2023/10/19 11:34:47;;;;;;;14.95;5.10;;;17.40;87.40;;;;;;9165262;19;20030;-70
2023/10/19 11:37:56;;;;;;;19.58;4.63;;;17.40;87.30;;;;;;9167055;19;20014;-73
2023/10/19 11:41:03;;;;;;;10.85;3.60;;;17.50;87.40;;;;;;9165405;19;20897;-73
2023/10/19 11:44:13;;;;;;;28.80;5.38;;;17.60;87.30;;;;;;9168384;19;20361;-69
2023/10/19 11:47:20;;;;;;;12.27;3.95;;;17.70;87.40;;;;;;9167571;19;20015;-70
2023/10/19 11:50:28;;;;;;;7.32;3.85;;;17.80;87.30;;;;;;9170507;19;20021;-70
2023/10/19 11:53:37;;;;;;;9.80;3.42;;;17.80;87.10;;;;;;9171063;19;20026;-70
2023/10/19 11:56:45;;;;;;;12.60;4.25;;;17.90;87.20;;;;;;9169873;19;20018;-73
2023/10/19 11:59:54;;;;;;;14.05;3.47;;;18.00;87.00;;;;;;9171208;19;20038;-71
2023/10/19 12:03:03;;;;;;;9.43;3.38;;;18.20;87.10;;;;;;9170491;19;20014;-68
2023/10/19 12:06:10;;;;;;;10.25;3.33;;;18.20;86.90;;;;;;9168350;19;20090;-72
2023/10/19 12:09:17;;;;;;;11.43;3.53;;;18.20;86.80;;;;;;9165855;19;20011;-70
2023/10/19 12:12:24;;;;;;;16.13;4.20;;;18.40;86.80;;;;;;9172675;19;20025;-69
2023/10/19 12:15:35;;;;;;;13.98;3.60;;;18.30;86.60;;;;;;9174595;19;20014;-71
2023/10/19 12:18:41;;;;;;;14.50;3.22;;;18.40;86.60;;;;;;9174252;19;20022;-69
2023/10/19 12:21:50;;;;;;;9.02;2.63;;;18.40;86.60;;;;;;9173213;19;20692;-69
2023/10/19 12:24:57;;;;;;;8.73;2.85;;;18.50;86.50;;;;;;9176615;19;20026;-69
2023/10/19 12:28:04;;;;;;;12.88;3.30;;;18.50;86.40;;;;;;9171950;19;20018;-69
2023/10/19 12:31:12;;;;;;;13.07;3.47;;;18.50;86.30;;;;;;9176554;19;20022;-68
2023/10/19 12:34:20;;;;;;;9.27;2.63;;;18.60;86.20;;;;;;9174745;19;20018;-69
2023/10/19 12:37:25;;;;;;;11.60;2.53;;;18.60;86.10;;;;;;9176748;19;20017;-69
2023/10/19 12:40:35;;;;;;;12.77;2.08;;;18.60;86.00;;;;;;9176583;19;20018;-69
2023/10/19 12:43:41;;;;;;;8.50;2.40;;;18.60;85.90;;;;;;9173103;19;20025;-73
2023/10/19 12:46:52;;;;;;;9.43;2.60;;;18.60;85.90;;;;;;9172203;19;20010;-69
2023/10/19 12:49:58;;;;;;;13.77;2.17;;;18.60;85.80;;;;;;9174129;19;20627;-72
2023/10/19 12:53:06;;;;;;;15.95;2.95;;;18.60;85.70;;;;;;9180573;19;20963;-71
2023/10/19 12:56:12;;;;;;;11.98;3.25;;;18.60;85.70;;;;;;9188458;19;20058;-70
2023/10/19 12:59:19;;;;;;;6.07;1.95;;;18.60;85.70;;;;;;9181279;19;20015;-69
2023/10/19 13:02:30;;;;;;;17.08;3.10;;;18.60;85.60;;;;;;9175958;19;20522;-69
2023/10/19 13:05:39;;;;;;;8.00;2.72;;;18.60;85.70;;;;;;9174357;19;20018;-71
2023/10/19 13:08:48;;;;;;;8.68;2.85;;;18.70;85.80;;;;;;9173510;19;20033;-70
2023/10/19 13:11:55;;;;;;;7.88;2.72;;;18.60;85.70;;;;;;9172771;19;20780;-69
2023/10/19 13:15:01;;;;;;;6.50;2.38;;;18.70;85.70;;;;;;9172632;19;20017;-70
2023/10/19 13:18:13;;;;;;;10.30;2.60;;;18.70;85.60;;;;;;9173287;19;20018;-70
2023/10/19 13:21:22;;;;;;;7.60;2.70;;;18.70;85.60;;;;;;9173044;19;20017;-70
2023/10/19 13:24:31;;;;;;;14.63;3.05;;;18.70;85.70;;;;;;9172354;19;20483;-72
2023/10/19 13:27:37;;;;;;;8.23;2.00;;;18.80;85.60;;;;;;9170656;19;20010;-69
2023/10/19 13:30:50;;;;;;;8.82;2.03;;;18.80;85.60;;;;;;9173836;19;20011;-73
2023/10/19 13:33:59;;;;;;;14.18;2.65;;;18.80;85.50;;;;;;9171397;19;20553;-72
2023/10/19 13:37:08;;;;;;;10.60;2.50;;;18.80;85.50;;;;;;9174120;19;20010;-70
2023/10/19 13:40:13;;;;;;;9.10;2.10;;;18.80;85.40;;;;;;9173353;19;20024;-70
2023/10/19 13:43:22;;;;;;;10.32;3.45;;;18.80;85.40;;;;;;9167833;19;20351;-68
2023/10/19 13:46:46;;;;;;;17.67;3.08;;;18.80;85.30;;;;;;9171497;19;20492;-70
2023/10/19 13:49:56;;;;;;;11.07;2.38;;;18.80;85.20;;;;;;9173222;19;20021;-70
2023/10/19 13:53:04;;;;;;;10.48;2.45;;;18.80;85.30;;;;;;9172406;19;20026;-69
2023/10/19 13:56:12;;;;;;;8.77;2.13;;;18.80;85.20;;;;;;9170459;19;20017;-72
2023/10/19 13:59:18;;;;;;;9.15;2.40;;;18.80;85.20;;;;;;9170103;19;20093;-70
2023/10/19 14:02:26;;;;;;;9.00;1.88;;;18.70;85.10;;;;;;9172562;19;20018;-70
2023/10/19 14:05:39;;;;;;;11.15;2.20;;;18.70;85.10;;;;;;9171616;19;20018;-69
2023/10/19 14:08:47;;;;;;;8.23;2.75;;;18.70;85.10;;;;;;9170536;19;20019;-69
2023/10/19 14:11:53;;;;;;;5.10;1.90;;;18.70;85.10;;;;;;9170859;19;20123;-69
2023/10/19 14:15:01;;;;;;;10.07;2.80;;;18.70;85.10;;;;;;9170395;19;20011;-70
2023/10/19 14:18:06;;;;;;;10.23;2.92;;;18.70;85.10;;;;;;9171855;19;20022;-70
2023/10/19 14:21:20;;;;;;;11.80;2.67;;;18.60;84.90;;;;;;9170531;19;20367;-71
2023/10/19 14:24:25;;;;;;;10.63;2.70;;;18.60;85.00;;;;;;9170102;19;20380;-69
2023/10/19 14:27:33;;;;;;;12.60;2.92;;;18.60;85.60;;;;;;9171124;19;20052;-69
2023/10/19 14:30:38;;;;;;;18.13;5.30;;;18.60;85.00;;;;;;9170548;19;20487;-70
2023/10/19 14:33:46;;;;;;;14.85;4.20;;;18.60;85.00;;;;;;9167385;19;20017;-69
2023/10/19 14:36:54;;;;;;;16.35;4.47;;;18.60;85.00;;;;;;9170693;19;20492;-69
2023/10/19 14:40:03;;;;;;;13.70;3.83;;;18.50;85.10;;;;;;9171272;19;20073;-70
2023/10/19 14:43:08;;;;;;;15.20;4.68;;;18.50;85.00;;;;;;9166668;19;20014;-71
2023/10/19 14:46:16;;;;;;;15.65;7.05;;;18.50;85.10;;;;;;9170683;19;20014;-70
2023/10/19 14:49:21;;;;;;;14.75;6.18;;;18.50;85.10;;;;;;9168157;19;20014;-72
2023/10/19 14:52:31;;;;;;;8.10;3.92;;;18.40;85.00;;;;;;9169980;19;20010;-69
2023/10/19 14:55:37;;;;;;;14.95;4.32;;;18.40;85.00;;;;;;9165530;19;20408;-69
2023/10/19 14:58:45;;;;;;;11.77;4.22;;;18.40;85.10;;;;;;9168671;19;20014;-69
2023/10/19 15:01:52;;;;;;;13.63;4.60;;;18.40;85.10;;;;;;9170323;19;20026;-69
2023/10/19 15:04:59;;;;;;;12.95;5.07;;;18.30;85.20;;;;;;9168366;19;20017;-71
2023/10/19 15:08:09;;;;;;;15.02;5.40;;;18.30;85.30;;;;;;9169301;19;20022;-70
2023/10/19 15:11:21;;;;;;;13.93;6.53;;;18.10;85.20;;;;;;9171162;19;20029;-68
2023/10/19 15:14:27;;;;;;;9.48;4.93;;;18.30;85.40;;;;;;9170299;19;20057;-70
2023/10/19 15:17:35;;;;;;;10.80;5.82;;;18.30;85.30;;;;;;9169947;19;20356;-69
2023/10/19 15:20:41;;;;;;;13.20;6.15;;;18.20;85.30;;;;;;9171136;19;20022;-69
2023/10/19 15:23:53;;;;;;;12.15;6.63;;;18.20;85.40;;;;;;9168380;19;20095;-69
2023/10/19 15:26:58;;;;;;;13.73;7.65;;;18.20;85.50;;;;;;9167815;19;20019;-68
2023/10/19 15:30:08;;;;;;;20.73;9.10;;;18.20;85.40;;;;;;9168496;19;20393;-73
2023/10/19 15:33:18;;;;;;;22.50;9.68;;;18.10;85.50;;;;;;9168342;19;20025;-74
2023/10/19 15:36:26;;;;;;;16.98;10.18;;;18.10;85.50;;;;;;9168656;19;20014;-71
2023/10/19 15:39:34;;;;;;;18.83;10.60;;;18.00;85.60;;;;;;9170174;19;20014;-71
2023/10/19 15:42:42;;;;;;;18.90;10.13;;;18.00;85.70;;;;;;9166743;19;20831;-70
2023/10/19 15:45:51;;;;;;;17.73;10.80;;;17.90;85.60;;;;;;9176471;19;20019;-71
2023/10/19 15:48:59;;;;;;;24.08;11.68;;;17.90;85.60;;;;;;9176220;19;20034;-68
2023/10/19 15:52:04;;;;;;;15.88;10.38;;;17.90;85.60;;;;;;9177950;19;20018;-72
2023/10/19 15:55:19;;;;;;;22.52;10.38;;;17.80;85.60;;;;;;9180939;19;20010;-72
2023/10/19 15:58:24;;;;;;;21.35;10.48;;;17.70;85.60;;;;;;9180796;19;20056;-74
2023/10/19 16:01:32;;;;;;;17.00;10.98;;;17.70;85.60;;;;;;9177032;19;20011;-70
2023/10/19 16:04:38;;;;;;;20.95;11.45;;;17.70;85.70;;;;;;9179354;19;20015;-73
2023/10/19 16:07:46;;;;;;;20.02;11.82;;;17.60;85.70;;;;;;9177767;19;20015;-71
2023/10/19 16:10:54;;;;;;;16.95;11.40;;;17.60;85.80;;;;;;9175351;19;20023;-72